createdAt,value
2017-11-24T00:00:57.569Z,5.93
2017-11-24T00:03:26.982Z,7.73
2017-11-24T00:05:56.382Z,11.23
2017-11-24T00:08:25.801Z,6.63
2017-11-24T00:10:55.186Z,4.90
2017-11-24T00:13:24.597Z,5.50
2017-11-24T00:15:54.871Z,4.27
2017-11-24T00:18:24.325Z,6.37
2017-11-24T00:20:53.695Z,5.00
2017-11-24T00:23:23.092Z,7.17
2017-11-24T00:25:52.473Z,6.27
2017-11-24T00:28:21.857Z,7.10
2017-11-24T00:30:51.230Z,7.53
2017-11-24T00:33:20.637Z,8.63
2017-11-24T00:35:50.003Z,8.50
2017-11-24T00:38:19.465Z,6.67
2017-11-24T00:40:48.838Z,8.10
2017-11-24T00:43:18.221Z,5.60
2017-11-24T00:45:47.593Z,7.67
2017-11-24T00:48:16.998Z,8.60
2017-11-24T00:50:46.359Z,5.97
2017-11-24T00:53:15.785Z,10.40
2017-11-24T00:55:45.148Z,7.10
2017-11-24T00:58:14.551Z,7.20
2017-11-24T01:00:43.908Z,7.30
2017-11-24T01:03:13.324Z,4.93
2017-11-24T01:05:42.706Z,10.10
2017-11-24T01:08:12.319Z,7.23
2017-11-24T01:10:41.687Z,7.00
2017-11-24T01:13:11.112Z,5.20
2017-11-24T01:15:40.480Z,5.53
2017-11-24T01:18:09.890Z,3.87
2017-11-24T01:20:39.266Z,8.83
2017-11-24T01:23:08.667Z,6.33
2017-11-24T01:25:38.026Z,6.13
2017-11-24T01:28:07.413Z,8.00
2017-11-24T01:30:36.800Z,4.90
2017-11-24T01:33:06.229Z,6.50
2017-11-24T01:35:35.612Z,4.40
2017-11-24T01:38:04.986Z,4.80
2017-11-24T01:40:34.381Z,6.67
2017-11-24T01:43:03.785Z,7.30
2017-11-24T01:45:33.211Z,9.47
2017-11-24T01:48:02.568Z,6.63
2017-11-24T01:50:31.957Z,7.17
2017-11-24T01:53:02.264Z,6.93
2017-11-24T01:55:31.664Z,8.87
2017-11-24T01:58:01.049Z,4.80
2017-11-24T02:00:30.456Z,7.60
2017-11-24T02:03:00.662Z,9.60
2017-11-24T02:05:30.049Z,9.37
2017-11-24T02:07:59.442Z,8.00
2017-11-24T02:10:28.830Z,6.37
2017-11-24T02:12:58.206Z,4.57
2017-11-24T02:15:27.588Z,4.80
2017-11-24T02:17:56.970Z,4.70
2017-11-24T02:20:26.373Z,5.80
2017-11-24T02:22:55.749Z,4.40
2017-11-24T02:25:25.143Z,8.23
2017-11-24T02:27:54.501Z,5.47
2017-11-24T02:30:23.914Z,6.13
2017-11-24T02:32:53.298Z,5.00
2017-11-24T02:35:22.685Z,6.30
2017-11-24T02:37:52.065Z,7.57
2017-11-24T02:40:21.451Z,3.93
2017-11-24T02:42:50.812Z,5.03
2017-11-24T02:45:20.205Z,9.90
2017-11-24T02:47:49.579Z,8.30
2017-11-24T02:50:18.971Z,7.50
2017-11-24T02:52:48.341Z,8.70
2017-11-24T02:55:17.725Z,5.57
2017-11-24T02:57:47.099Z,6.33
2017-11-24T03:00:16.507Z,5.67
2017-11-24T03:02:45.869Z,8.47
2017-11-24T03:05:15.260Z,11.87
2017-11-24T03:07:44.632Z,5.77
2017-11-24T03:10:14.050Z,11.13
2017-11-24T03:12:43.425Z,9.53
2017-11-24T03:15:12.809Z,9.27
2017-11-24T03:17:43.075Z,6.57
2017-11-24T03:20:12.486Z,6.93
2017-11-24T03:22:41.871Z,13.67
2017-11-24T03:25:11.254Z,7.80
2017-11-24T03:27:40.634Z,8.87
2017-11-24T03:30:10.945Z,7.87
2017-11-24T03:32:40.333Z,4.43
2017-11-24T03:35:09.703Z,12.40
2017-11-24T03:37:39.127Z,5.80
2017-11-24T03:40:08.491Z,5.90
2017-11-24T03:42:37.886Z,7.23
2017-11-24T03:45:07.258Z,7.53
2017-11-24T03:47:36.664Z,7.50
2017-11-24T03:50:06.035Z,7.30
2017-11-24T03:52:35.430Z,11.10
2017-11-24T03:55:04.801Z,8.40
2017-11-24T03:57:34.198Z,5.70
2017-11-24T04:00:03.573Z,8.97
2017-11-24T04:02:38.741Z,6.53
2017-11-24T04:05:08.124Z,5.47
2017-11-24T04:07:37.522Z,11.63
2017-11-24T04:10:06.915Z,9.17
2017-11-24T04:12:36.325Z,9.33
2017-11-24T04:15:05.710Z,6.13
2017-11-24T04:17:35.114Z,13.73
2017-11-24T04:20:04.504Z,8.30
2017-11-24T04:22:33.896Z,8.33
2017-11-24T04:25:03.266Z,6.97
2017-11-24T04:27:32.668Z,6.13
2017-11-24T04:30:02.054Z,5.80
2017-11-24T04:32:31.467Z,8.63
2017-11-24T04:35:00.852Z,9.80
2017-11-24T04:37:30.258Z,7.17
2017-11-24T04:39:59.626Z,8.93
2017-11-24T04:42:29.056Z,13.10
2017-11-24T04:44:58.433Z,7.37
2017-11-24T04:47:27.816Z,5.07
2017-11-24T04:49:57.232Z,7.53
2017-11-24T04:52:26.626Z,7.40
2017-11-24T04:54:56.013Z,5.80
2017-11-24T04:57:25.413Z,8.90
2017-11-24T04:59:54.808Z,12.53
2017-11-24T05:02:24.230Z,7.97
2017-11-24T05:04:53.598Z,9.13
2017-11-24T05:07:22.994Z,10.07
2017-11-24T05:09:52.390Z,9.03
2017-11-24T05:12:21.809Z,8.20
2017-11-24T05:14:51.273Z,7.40
2017-11-24T05:17:20.706Z,8.90
2017-11-24T05:19:50.090Z,9.47
2017-11-24T05:22:19.658Z,9.97
2017-11-24T05:24:49.055Z,8.77
2017-11-24T05:27:18.668Z,9.73
2017-11-24T05:29:48.062Z,7.03
2017-11-24T05:32:17.429Z,6.70
2017-11-24T05:34:46.819Z,11.13
2017-11-24T05:37:16.225Z,11.00
2017-11-24T05:39:45.626Z,10.57
2017-11-24T05:42:15.006Z,15.90
2017-11-24T05:44:44.393Z,14.53
2017-11-24T05:47:13.765Z,16.63
2017-11-24T05:49:43.198Z,14.10
2017-11-24T05:52:12.556Z,13.13
2017-11-24T05:54:41.940Z,17.53
2017-11-24T05:57:11.329Z,14.37
2017-11-24T05:59:40.759Z,12.97
2017-11-24T06:02:10.140Z,15.40
2017-11-24T06:04:39.578Z,10.50
2017-11-24T06:07:08.966Z,14.57
2017-11-24T06:09:38.370Z,13.57
2017-11-24T06:12:07.754Z,18.07
2017-11-24T06:14:37.834Z,14.73
2017-11-24T06:17:07.241Z,17.67
2017-11-24T06:19:36.646Z,18.57
2017-11-24T06:22:06.016Z,16.37
2017-11-24T06:24:35.415Z,15.83
2017-11-24T06:27:04.773Z,13.97
2017-11-24T06:29:34.732Z,12.60
2017-11-24T06:32:04.145Z,14.20
2017-11-24T06:34:33.528Z,16.53
2017-11-24T06:37:02.905Z,16.10
2017-11-24T06:39:32.297Z,14.00
2017-11-24T06:42:01.674Z,16.40
2017-11-24T06:44:31.070Z,15.07
2017-11-24T06:47:00.435Z,16.37
2017-11-24T06:49:29.842Z,15.37
2017-11-24T06:51:59.221Z,20.00
2017-11-24T06:54:28.622Z,17.63
2017-11-24T06:56:58.025Z,16.40
2017-11-24T06:59:27.467Z,20.83
2017-11-24T07:01:56.876Z,14.60
2017-11-24T07:04:26.293Z,18.53
2017-11-24T07:06:55.676Z,16.93
2017-11-24T07:09:25.108Z,14.03
2017-11-24T07:11:54.483Z,13.77
2017-11-24T07:14:23.913Z,14.23
2017-11-24T07:16:53.321Z,16.00
2017-11-24T07:19:22.686Z,11.53
2017-11-24T07:21:52.086Z,11.57
2017-11-24T07:24:21.455Z,13.93
2017-11-24T07:26:50.871Z,12.03
2017-11-24T07:29:20.323Z,14.17
2017-11-24T07:31:49.741Z,13.97
2017-11-24T07:34:19.119Z,14.40
2017-11-24T07:36:48.536Z,14.93
2017-11-24T07:39:17.916Z,12.20
2017-11-24T07:41:47.325Z,22.40
2017-11-24T07:44:16.706Z,10.33
2017-11-24T07:46:46.142Z,10.50
2017-11-24T07:49:15.505Z,10.50
2017-11-24T07:51:44.904Z,11.73
2017-11-24T07:54:14.273Z,7.53
2017-11-24T07:56:43.661Z,8.93
2017-11-24T07:59:13.035Z,10.03
2017-11-24T08:01:42.437Z,10.07
2017-11-24T08:04:11.814Z,12.20
2017-11-24T08:06:41.248Z,12.67
2017-11-24T08:09:10.632Z,10.57
2017-11-24T08:11:40.041Z,13.40
2017-11-24T08:14:09.421Z,14.67
2017-11-24T08:16:38.802Z,6.97
2017-11-24T08:19:08.184Z,16.67
2017-11-24T08:21:37.896Z,11.53
2017-11-24T08:24:07.257Z,5.60
2017-11-24T08:26:36.697Z,10.10
2017-11-24T08:29:06.069Z,2.80
2017-11-24T08:31:35.462Z,2.90
2017-11-24T08:34:04.820Z,2.50
2017-11-24T08:36:34.224Z,3.53
2017-11-24T08:39:03.669Z,6.50
2017-11-24T08:41:33.051Z,4.63
2017-11-24T08:44:02.415Z,1.70
2017-11-24T08:46:37.568Z,5.20
2017-11-24T08:49:12.714Z,2.17
2017-11-24T08:51:42.111Z,2.73
2017-11-24T08:54:12.517Z,3.50
2017-11-24T08:56:41.932Z,5.07
2017-11-24T08:59:11.298Z,4.70
2017-11-24T09:01:40.686Z,2.53
2017-11-24T09:04:10.055Z,2.93
2017-11-24T09:06:39.445Z,3.53
2017-11-24T09:09:09.145Z,2.60
2017-11-24T09:11:38.530Z,1.90
2017-11-24T09:14:07.915Z,7.80
2017-11-24T09:16:37.290Z,5.97
2017-11-24T09:19:06.680Z,5.03
2017-11-24T09:21:36.039Z,4.00
2017-11-24T09:24:05.486Z,6.67
2017-11-24T09:26:34.853Z,5.77
2017-11-24T09:29:04.254Z,5.47
2017-11-24T09:31:33.612Z,5.23
2017-11-24T09:34:02.997Z,5.97
2017-11-24T09:36:32.369Z,10.70
2017-11-24T09:39:01.794Z,3.30
2017-11-24T09:41:31.167Z,7.47
2017-11-24T09:44:00.557Z,5.17
2017-11-24T09:46:29.920Z,5.00
2017-11-24T09:48:59.313Z,5.30
2017-11-24T09:51:28.721Z,10.47
2017-11-24T09:53:58.112Z,6.67
2017-11-24T09:56:27.483Z,8.20
2017-11-24T09:58:56.861Z,6.77
2017-11-24T10:01:26.247Z,5.47
2017-11-24T10:03:55.656Z,10.97
2017-11-24T10:06:25.024Z,4.73
2017-11-24T10:08:54.445Z,4.60
2017-11-24T10:11:23.817Z,6.17
2017-11-24T10:13:53.220Z,5.33
2017-11-24T10:16:22.583Z,9.10
2017-11-24T10:18:51.972Z,3.77
2017-11-24T10:21:26.993Z,5.00
2017-11-24T10:23:56.401Z,5.23
2017-11-24T10:26:25.779Z,5.40
2017-11-24T10:28:55.160Z,4.00
2017-11-24T10:31:24.541Z,5.67
2017-11-24T10:33:53.922Z,6.83
2017-11-24T10:36:23.289Z,4.83
2017-11-24T10:38:52.695Z,4.63
2017-11-24T10:41:22.066Z,5.67
2017-11-24T10:43:51.457Z,4.10
2017-11-24T10:46:20.830Z,2.97
2017-11-24T10:48:50.238Z,5.80
2017-11-24T10:51:19.611Z,2.60
2017-11-24T10:53:49.024Z,5.70
2017-11-24T10:56:18.371Z,7.53
2017-11-24T10:58:47.782Z,6.23
2017-11-24T11:01:17.141Z,3.13
2017-11-24T11:03:46.568Z,4.97
2017-11-24T11:06:15.937Z,6.53
2017-11-24T11:08:45.353Z,10.80
2017-11-24T11:11:14.723Z,5.43
2017-11-24T11:13:44.139Z,9.77
2017-11-24T11:16:13.504Z,7.67
2017-11-24T11:18:42.919Z,8.23
2017-11-24T11:21:12.334Z,3.03
2017-11-24T11:23:41.709Z,6.47
2017-11-24T11:26:11.107Z,4.33
2017-11-24T11:28:40.477Z,5.10
2017-11-24T11:31:09.876Z,6.53
2017-11-24T11:33:39.248Z,7.20
2017-11-24T11:36:08.662Z,6.53
2017-11-24T11:38:38.029Z,4.50
2017-11-24T11:41:07.421Z,4.17
2017-11-24T11:43:36.778Z,8.83
2017-11-24T11:46:06.193Z,10.20
2017-11-24T11:48:35.565Z,8.10
2017-11-24T11:51:04.973Z,7.53
2017-11-24T11:53:34.368Z,4.50
2017-11-24T11:56:03.760Z,10.30
2017-11-24T11:58:34.058Z,8.83
2017-11-24T12:01:03.446Z,3.80
2017-11-24T12:03:37.763Z,4.80
2017-11-24T12:06:07.157Z,8.00
2017-11-24T12:08:36.570Z,6.90
2017-11-24T12:11:05.954Z,4.67
2017-11-24T12:13:35.335Z,5.33
2017-11-24T12:16:04.749Z,5.43
2017-11-24T12:18:34.114Z,6.37
2017-11-24T12:21:03.516Z,9.50
2017-11-24T12:23:32.893Z,7.00
2017-11-24T12:26:02.276Z,7.80
2017-11-24T12:28:31.647Z,6.57
2017-11-24T12:31:01.048Z,8.83
2017-11-24T12:33:30.443Z,6.07
2017-11-24T12:35:59.844Z,12.00
2017-11-24T12:38:29.237Z,11.20
2017-11-24T12:40:58.626Z,9.63
2017-11-24T12:43:28.010Z,14.20
2017-11-24T12:45:57.392Z,8.97
2017-11-24T12:48:26.767Z,7.50
2017-11-24T12:50:56.153Z,7.80
2017-11-24T12:53:25.524Z,12.03
2017-11-24T12:55:54.923Z,8.37
2017-11-24T12:58:24.298Z,6.53
2017-11-24T13:00:53.696Z,9.43
2017-11-24T13:03:23.073Z,6.00
2017-11-24T13:05:52.460Z,7.20
2017-11-24T13:08:21.832Z,6.67
2017-11-24T13:10:51.229Z,7.10
2017-11-24T13:13:20.649Z,7.03
2017-11-24T13:15:50.048Z,6.90
2017-11-24T13:18:19.465Z,9.33
2017-11-24T13:20:48.839Z,8.60
2017-11-24T13:23:18.217Z,6.60
2017-11-24T13:25:47.602Z,9.07
2017-11-24T13:28:17.049Z,9.23
2017-11-24T13:30:46.413Z,7.37
2017-11-24T13:33:15.818Z,16.23
2017-11-24T13:35:45.211Z,11.83
2017-11-24T13:38:14.642Z,10.30
2017-11-24T13:40:44.037Z,13.57
2017-11-24T13:43:13.449Z,10.37
2017-11-24T13:45:42.830Z,9.07
2017-11-24T13:48:12.229Z,11.87
2017-11-24T13:50:41.623Z,12.63
2017-11-24T13:53:11.058Z,10.87
2017-11-24T13:55:42.329Z,10.17
2017-11-24T13:58:11.748Z,14.30
2017-11-24T14:00:41.151Z,23.07
2017-11-24T14:03:10.550Z,13.63
2017-11-24T14:05:39.945Z,14.23
2017-11-24T14:08:09.368Z,13.67
2017-11-24T14:10:38.729Z,19.13
2017-11-24T14:13:08.128Z,14.83
2017-11-24T14:15:37.519Z,14.20
2017-11-24T14:18:07.493Z,15.00
2017-11-24T14:20:36.875Z,20.00
2017-11-24T14:23:06.279Z,12.93
2017-11-24T14:25:35.671Z,24.17
2017-11-24T14:28:05.066Z,12.40
2017-11-24T14:30:34.463Z,16.37
2017-11-24T14:33:03.869Z,12.70
2017-11-24T14:35:33.262Z,16.53
2017-11-24T14:38:02.655Z,16.23
2017-11-24T14:40:32.052Z,23.17
2017-11-24T14:43:01.476Z,15.93
2017-11-24T14:45:30.858Z,16.80
2017-11-24T14:48:00.251Z,25.17
2017-11-24T14:50:29.665Z,16.43
2017-11-24T14:52:59.077Z,12.30
2017-11-24T14:55:28.449Z,13.83
2017-11-24T14:57:57.844Z,15.20
2017-11-24T15:00:27.229Z,16.70
2017-11-24T15:02:56.670Z,17.73
2017-11-24T15:05:26.028Z,13.43
2017-11-24T15:07:55.420Z,16.90
2017-11-24T15:10:24.855Z,14.30
2017-11-24T15:12:54.229Z,13.83
2017-11-24T15:15:23.663Z,12.97
2017-11-24T15:17:53.068Z,11.83
2017-11-24T15:20:22.459Z,11.43
2017-11-24T15:22:51.852Z,9.73
2017-11-24T15:25:21.243Z,11.57
2017-11-24T15:27:50.625Z,16.13
2017-11-24T15:30:20.111Z,14.03
2017-11-24T15:32:49.475Z,11.30
2017-11-24T15:35:18.887Z,11.00
2017-11-24T15:37:48.257Z,12.90
2017-11-24T15:40:18.289Z,9.43
2017-11-24T15:42:47.690Z,12.30
2017-11-24T15:45:17.125Z,13.53
2017-11-24T15:47:46.496Z,11.80
2017-11-24T15:50:15.892Z,12.20
2017-11-24T15:52:45.262Z,10.97
2017-11-24T15:55:14.655Z,11.40
2017-11-24T15:57:44.034Z,13.00
2017-11-24T16:00:13.419Z,14.10
2017-11-24T16:02:42.800Z,12.20
2017-11-24T16:05:12.207Z,19.67
2017-11-24T16:07:41.662Z,14.57
2017-11-24T16:10:11.142Z,15.27
2017-11-24T16:12:40.524Z,15.07
2017-11-24T16:15:09.929Z,12.80
2017-11-24T16:17:39.328Z,13.67
2017-11-24T16:20:08.716Z,20.17
2017-11-24T16:22:38.103Z,21.23
2017-11-24T16:25:07.530Z,17.03
2017-11-24T16:27:36.893Z,14.10
2017-11-24T16:30:06.290Z,14.33
2017-11-24T16:32:35.660Z,13.63
2017-11-24T16:35:05.067Z,11.43
2017-11-24T16:37:34.440Z,11.40
2017-11-24T16:40:03.825Z,18.03
2017-11-24T16:42:33.206Z,13.87
2017-11-24T16:45:02.603Z,19.93
2017-11-24T16:47:31.983Z,12.07
2017-11-24T16:50:01.385Z,14.43
2017-11-24T16:52:30.772Z,13.60
2017-11-24T16:55:00.177Z,15.83
2017-11-24T16:57:29.537Z,16.53
2017-11-24T16:59:59.612Z,13.70
2017-11-24T17:02:29.012Z,13.40
2017-11-24T17:04:58.417Z,14.83
2017-11-24T17:07:27.782Z,15.37
2017-11-24T17:09:57.193Z,16.33
2017-11-24T17:12:26.582Z,13.53
2017-11-24T17:14:55.964Z,16.57
2017-11-24T17:17:25.397Z,14.23
2017-11-24T17:19:54.772Z,15.03
2017-11-24T17:22:24.186Z,15.80
2017-11-24T17:24:53.565Z,14.77
2017-11-24T17:27:22.976Z,19.30
2017-11-24T17:29:52.352Z,15.20
2017-11-24T17:32:21.749Z,23.23
2017-11-24T17:34:51.141Z,19.13
2017-11-24T17:37:20.551Z,18.80
2017-11-24T17:39:49.938Z,20.93
2017-11-24T17:42:19.367Z,18.27
2017-11-24T17:44:48.741Z,17.87
2017-11-24T17:47:18.153Z,19.37
2017-11-24T17:49:47.556Z,20.47
2017-11-24T17:52:16.948Z,19.70
2017-11-24T17:54:46.327Z,19.10
2017-11-24T17:57:15.729Z,24.30
2017-11-24T17:59:45.148Z,26.00
2017-11-24T18:02:14.598Z,22.00
2017-11-24T18:04:44.052Z,23.27
2017-11-24T18:07:13.465Z,21.97
2017-11-24T18:09:42.859Z,20.87
2017-11-24T18:12:12.265Z,20.60
2017-11-24T18:14:41.664Z,18.60
2017-11-24T18:17:11.092Z,20.43
2017-11-24T18:19:40.468Z,18.00
2017-11-24T18:22:09.892Z,17.73
2017-11-24T18:24:39.275Z,20.80
2017-11-24T18:27:08.692Z,20.23
2017-11-24T18:29:38.068Z,29.63
2017-11-24T18:32:07.461Z,21.17
2017-11-24T18:34:36.873Z,25.27
2017-11-24T18:37:06.269Z,22.57
2017-11-24T18:39:35.694Z,27.17
2017-11-24T18:42:05.099Z,30.73
2017-11-24T18:44:34.478Z,23.10
2017-11-24T18:47:03.877Z,26.17
2017-11-24T18:49:33.276Z,23.47
2017-11-24T18:52:02.770Z,55.17
2017-11-24T18:54:32.146Z,28.67
2017-11-24T18:57:01.548Z,26.97
2017-11-24T18:59:32.194Z,32.07
2017-11-24T19:02:01.681Z,26.63
2017-11-24T19:04:31.091Z,22.60
2017-11-24T19:07:00.468Z,27.77
2017-11-24T19:09:29.998Z,32.67
2017-11-24T19:11:59.404Z,29.00
2017-11-24T19:14:29.046Z,25.23
2017-11-24T19:16:58.428Z,27.10
2017-11-24T19:19:27.840Z,21.90
2017-11-24T19:21:57.249Z,25.33
2017-11-24T19:24:26.677Z,27.30
2017-11-24T19:26:56.048Z,20.70
2017-11-24T19:29:25.441Z,26.20
2017-11-24T19:31:54.851Z,25.63
2017-11-24T19:34:24.258Z,23.40
2017-11-24T19:36:53.657Z,24.30
2017-11-24T19:39:23.044Z,28.20
2017-11-24T19:41:53.342Z,37.43
2017-11-24T19:44:22.739Z,33.20
2017-11-24T19:46:52.117Z,33.40
2017-11-24T19:49:21.522Z,27.00
2017-11-24T19:51:50.909Z,31.00
2017-11-24T19:54:20.318Z,29.20
2017-11-24T19:56:49.693Z,40.97
2017-11-24T19:59:19.157Z,26.40
2017-11-24T20:01:49.336Z,27.50
2017-11-24T20:04:18.787Z,22.10
2017-11-24T20:06:48.237Z,49.20
2017-11-24T20:09:18.297Z,41.33
2017-11-24T20:11:47.985Z,64.50
2017-11-24T20:14:17.428Z,27.90
2017-11-24T20:16:46.800Z,28.87
2017-11-24T20:19:16.293Z,29.80
2017-11-24T20:21:45.693Z,25.17
2017-11-24T20:24:15.998Z,23.77
2017-11-24T20:26:45.380Z,26.57
2017-11-24T20:29:14.780Z,20.43
2017-11-24T20:31:44.180Z,32.90
2017-11-24T20:34:13.601Z,40.33
2017-11-24T20:36:42.982Z,33.30
2017-11-24T20:39:12.396Z,31.53
2017-11-24T20:41:41.902Z,33.30
2017-11-24T20:44:11.382Z,27.37
2017-11-24T20:46:41.205Z,27.33
2017-11-24T20:49:11.105Z,27.23
2017-11-24T20:51:40.859Z,35.67
2017-11-24T20:54:10.428Z,28.60
2017-11-24T20:56:39.810Z,23.40
2017-11-24T20:59:09.246Z,23.70
2017-11-24T21:01:38.728Z,29.77
2017-11-24T21:04:08.121Z,26.37
2017-11-24T21:06:37.535Z,28.20
2017-11-24T21:09:06.935Z,24.83
2017-11-24T21:11:36.331Z,28.93
2017-11-24T21:14:05.718Z,29.20
2017-11-24T21:16:35.116Z,27.87
2017-11-24T21:19:04.481Z,30.17
2017-11-24T21:21:33.884Z,31.17
2017-11-24T21:24:03.265Z,28.37
2017-11-24T21:26:32.656Z,29.17
2017-11-24T21:29:02.031Z,33.60
2017-11-24T21:31:31.462Z,34.13
2017-11-24T21:34:00.855Z,31.67
2017-11-24T21:36:30.393Z,28.50
2017-11-24T21:38:59.802Z,29.50
2017-11-24T21:41:29.219Z,25.77
2017-11-24T21:43:58.590Z,24.70
2017-11-24T21:46:27.988Z,32.00
2017-11-24T21:48:57.366Z,28.20
2017-11-24T21:51:26.785Z,31.00
2017-11-24T21:53:56.161Z,28.60
2017-11-24T21:56:25.551Z,25.20
2017-11-24T21:58:54.941Z,27.80
2017-11-24T22:01:24.741Z,25.73
2017-11-24T22:03:54.129Z,28.83
2017-11-24T22:06:23.527Z,26.77
2017-11-24T22:08:52.923Z,26.27
2017-11-24T22:11:22.330Z,26.83
2017-11-24T22:13:51.709Z,30.60
2017-11-24T22:16:21.107Z,30.93
2017-11-24T22:18:50.472Z,35.13
2017-11-24T22:21:19.883Z,28.70
2017-11-24T22:23:49.273Z,36.00
2017-11-24T22:26:18.678Z,23.33
2017-11-24T22:28:48.049Z,26.47
2017-11-24T22:31:18.240Z,24.40
2017-11-24T22:33:47.618Z,22.17
2017-11-24T22:36:16.997Z,24.00
2017-11-24T22:38:46.403Z,23.97
2017-11-24T22:41:15.778Z,31.67
2017-11-24T22:43:45.192Z,24.23
2017-11-24T22:46:14.576Z,26.17
2017-11-24T22:48:43.986Z,27.70
2017-11-24T22:51:13.372Z,37.00
2017-11-24T22:53:42.776Z,31.50
2017-11-24T22:56:12.164Z,32.50
2017-11-24T22:58:41.583Z,25.80
2017-11-24T23:01:10.947Z,28.10
2017-11-24T23:03:40.346Z,29.10
2017-11-24T23:06:09.730Z,34.47
2017-11-24T23:08:39.123Z,32.00
2017-11-24T23:11:08.521Z,29.83
2017-11-24T23:13:37.917Z,31.00
2017-11-24T23:16:07.301Z,32.63
2017-11-24T23:18:36.685Z,34.27
2017-11-24T23:21:06.056Z,34.87
2017-11-24T23:23:35.447Z,44.63
2017-11-24T23:26:04.892Z,38.63
2017-11-24T23:28:34.330Z,32.77
2017-11-24T23:31:03.693Z,35.10
2017-11-24T23:33:33.105Z,41.07
2017-11-24T23:36:02.465Z,33.73
2017-11-24T23:38:31.866Z,32.60
2017-11-24T23:41:01.254Z,33.17
2017-11-24T23:43:30.661Z,30.37
2017-11-24T23:46:00.042Z,33.00
2017-11-24T23:48:29.441Z,32.20
2017-11-24T23:50:59.678Z,31.63
2017-11-24T23:53:29.085Z,34.17
2017-11-24T23:55:58.470Z,37.97
2017-11-24T23:58:27.862Z,33.87
